createdAt,value
2022-09-05T00:02:01.211Z,18.60
2022-09-05T00:04:44.619Z,18.60
2022-09-05T00:07:57.666Z,18.50
2022-09-05T00:10:17.291Z,18.50
2022-09-05T00:12:49.348Z,18.40
2022-09-05T00:15:58.300Z,18.40
2022-09-05T00:24:18.542Z,18.40
2022-09-05T00:24:29.216Z,18.40
2022-09-05T00:25:32.639Z,18.30
2022-09-05T00:28:26.538Z,18.30
2022-09-05T00:31:53.387Z,18.40
2022-09-05T00:34:25.695Z,18.30
2022-09-05T00:37:04.259Z,18.30
2022-09-05T00:39:37.561Z,18.30
2022-09-05T00:42:13.484Z,18.30
2022-09-05T00:44:54.349Z,18.30
2022-09-05T00:47:41.947Z,18.20
2022-09-05T00:50:24.375Z,18.20
2022-09-05T00:53:18.501Z,18.10
2022-09-05T00:56:19.193Z,18.10
2022-09-05T00:58:58.601Z,18.10
2022-09-05T01:01:58.421Z,18.00
2022-09-05T01:04:44.540Z,17.90
2022-09-05T01:07:44.111Z,17.90
2022-09-05T01:10:24.856Z,17.90
2022-09-05T01:13:16.818Z,17.90
2022-09-05T01:15:57.637Z,17.90
2022-09-05T01:18:55.364Z,17.90
2022-09-05T01:21:22.616Z,17.90
2022-09-05T01:24:27.590Z,17.80
2022-09-05T01:27:51.486Z,17.80
2022-09-05T01:30:22.015Z,17.80
2022-09-05T01:33:24.541Z,17.80
2022-09-05T01:36:10.915Z,17.80
2022-09-05T01:40:10.671Z,17.80
2022-09-05T01:42:24.903Z,17.70
2022-09-05T01:44:57.455Z,17.80
2022-09-05T01:47:50.135Z,17.80
2022-09-05T01:50:51.619Z,17.80
2022-09-05T01:54:24.397Z,17.70
2022-09-05T01:57:33.969Z,17.70
2022-09-05T02:00:12.369Z,17.60
2022-09-05T02:03:04.363Z,17.60
2022-09-05T02:05:53.019Z,17.50
2022-09-05T02:08:29.491Z,17.50
2022-09-05T02:11:12.419Z,17.50
2022-09-05T02:13:53.167Z,17.40
2022-09-05T02:16:38.352Z,17.40
2022-09-05T02:19:10.201Z,17.40
2022-09-05T02:21:56.889Z,17.40
2022-09-05T02:24:37.897Z,17.40
2022-09-05T02:27:08.369Z,17.30
2022-09-05T02:30:09.648Z,17.30
2022-09-05T02:32:39.267Z,17.30
2022-09-05T02:35:10.543Z,17.30
2022-09-05T02:39:56.259Z,17.30
2022-09-05T02:45:15.039Z,17.30
2022-09-05T02:45:17.334Z,17.30
2022-09-05T02:46:59.840Z,17.30
2022-09-05T02:53:45.576Z,17.30
2022-09-05T02:57:25.491Z,17.20
2022-09-05T02:57:40.975Z,17.30
2022-09-05T02:59:05.832Z,17.30
2022-09-05T03:01:42.224Z,17.30
2022-09-05T03:04:32.048Z,17.20
2022-09-05T03:07:29.114Z,17.20
2022-09-05T03:10:28.335Z,17.20
2022-09-05T03:13:34.815Z,17.20
2022-09-05T03:16:47.467Z,17.10
2022-09-05T03:19:17.961Z,17.10
2022-09-05T03:22:22.899Z,17.00
2022-09-05T03:25:12.259Z,17.00
2022-09-05T03:28:16.988Z,16.90
2022-09-05T03:31:22.078Z,16.90
2022-09-05T03:34:27.295Z,16.90
2022-09-05T03:37:41.755Z,16.90
2022-09-05T03:40:27.879Z,16.90
2022-09-05T03:43:10.281Z,16.90
2022-09-05T03:45:58.121Z,16.80
2022-09-05T03:48:43.566Z,16.80
2022-09-05T03:57:05.748Z,16.80
2022-09-05T03:57:27.735Z,16.70
2022-09-05T03:57:45.269Z,16.70
2022-09-05T04:00:21.038Z,16.70
2022-09-05T04:08:05.853Z,16.70
2022-09-05T04:08:14.028Z,16.70
2022-09-05T04:09:50.591Z,16.70
2022-09-05T04:12:30.931Z,16.60
2022-09-05T04:15:01.383Z,16.60
2022-09-05T04:17:37.656Z,16.60
2022-09-05T04:20:30.702Z,16.60
2022-09-05T04:23:31.210Z,16.70
2022-09-05T04:26:12.163Z,16.70
2022-09-05T04:28:59.697Z,16.70
2022-09-05T04:31:45.268Z,16.70
2022-09-05T04:34:40.287Z,16.70
2022-09-05T04:37:09.872Z,16.70
2022-09-05T04:39:37.697Z,16.80
2022-09-05T04:42:05.073Z,16.80
2022-09-05T04:45:04.761Z,16.80
2022-09-05T04:47:41.873Z,16.90
2022-09-05T04:50:10.902Z,17.00
2022-09-05T04:53:13.825Z,17.10
2022-09-05T04:55:50.555Z,17.10
2022-09-05T04:58:53.493Z,17.30
2022-09-05T05:06:08.725Z,17.60
2022-09-05T05:06:14.888Z,17.40
2022-09-05T05:07:22.469Z,17.80
2022-09-05T05:10:02.033Z,18.10
2022-09-05T05:17:58.508Z,18.20
2022-09-05T05:18:11.816Z,18.40
2022-09-05T05:19:03.047Z,18.60
2022-09-05T05:21:31.615Z,18.80
2022-09-05T05:24:09.685Z,18.90
2022-09-05T05:26:44.883Z,19.10
2022-09-05T05:29:55.083Z,19.30
2022-09-05T05:32:45.981Z,19.50
2022-09-05T05:35:29.968Z,19.70
2022-09-05T05:38:32.015Z,19.90
2022-09-05T05:41:28.748Z,20.10
2022-09-05T05:43:56.334Z,20.30
2022-09-05T05:46:39.864Z,20.40
2022-09-05T05:49:32.275Z,20.50
2022-09-05T05:52:19.204Z,20.60
2022-09-05T05:55:50.510Z,20.70
2022-09-05T05:58:11.639Z,20.90
2022-09-05T06:01:37.077Z,21.10
2022-09-05T06:04:30.439Z,21.30
2022-09-05T06:07:30.373Z,21.50
2022-09-05T06:14:48.991Z,21.50
2022-09-05T06:14:56.050Z,21.50
2022-09-05T06:16:48.564Z,21.50
2022-09-05T06:21:54.555Z,21.70
2022-09-05T06:22:41.510Z,21.90
2022-09-05T06:25:27.242Z,22.00
2022-09-05T06:28:18.895Z,22.10
2022-09-05T06:31:29.080Z,22.20
2022-09-05T06:34:33.346Z,22.40
2022-09-05T06:37:29.463Z,22.50
2022-09-05T06:40:12.693Z,22.70
2022-09-05T06:42:51.992Z,22.80
2022-09-05T06:45:49.535Z,22.80
2022-09-05T06:48:58.637Z,22.90
2022-09-05T06:52:13.098Z,23.00
2022-09-05T06:54:59.786Z,23.10
2022-09-05T06:58:02.963Z,23.20
2022-09-05T07:00:45.058Z,23.20
2022-09-05T07:03:37.865Z,23.40
2022-09-05T07:06:19.299Z,23.50
2022-09-05T07:08:53.757Z,23.60
2022-09-05T09:29:19.165Z,28.60
2022-09-05T09:31:52.729Z,28.90
2022-09-05T09:34:26.194Z,29.10
2022-09-05T09:37:04.841Z,29.40
2022-09-05T09:40:04.389Z,29.70
2022-09-05T09:42:57.333Z,29.80
2022-09-05T09:45:42.311Z,30.10
2022-09-05T09:48:37.822Z,30.10
2022-09-05T09:51:22.767Z,30.30
2022-09-05T09:54:11.440Z,30.50
2022-09-05T09:56:56.808Z,30.70
2022-09-05T10:00:09.912Z,30.70
2022-09-05T10:07:39.775Z,30.70
2022-09-05T10:10:59.081Z,30.40
2022-09-05T10:11:09.016Z,30.20
2022-09-05T10:13:11.831Z,30.00
2022-09-05T10:15:59.164Z,29.70
2022-09-05T10:18:54.544Z,29.60
2022-09-05T10:25:18.879Z,30.10
2022-09-05T10:28:00.822Z,30.20
2022-09-05T10:33:05.267Z,30.40
2022-09-05T10:35:17.539Z,30.20
2022-09-05T10:36:34.546Z,30.00
2022-09-05T10:39:16.469Z,30.00
2022-09-05T10:42:03.537Z,30.20
2022-09-05T10:44:41.318Z,30.40
2022-09-05T10:47:44.094Z,30.30
2022-09-05T10:50:38.155Z,30.10
2022-09-05T10:53:28.236Z,30.10
2022-09-05T10:56:23.155Z,30.00
2022-09-05T11:02:19.197Z,29.90
2022-09-05T11:02:27.156Z,30.00
2022-09-05T11:05:17.947Z,30.10
2022-09-05T11:08:02.037Z,30.00
2022-09-05T11:11:05.351Z,29.60
2022-09-05T11:13:45.898Z,29.30
2022-09-05T11:16:24.590Z,29.20
2022-09-05T11:18:59.877Z,29.20
2022-09-05T11:21:39.956Z,29.20
2022-09-05T11:24:36.941Z,29.40
2022-09-05T11:27:25.701Z,29.50
2022-09-05T11:30:07.160Z,29.40
2022-09-05T11:39:50.834Z,29.70
2022-09-05T11:39:51.656Z,29.30
2022-09-05T11:40:05.034Z,30.10
2022-09-05T11:42:35.358Z,30.50
2022-09-05T11:45:17.857Z,30.60
2022-09-05T11:48:03.966Z,30.80
2022-09-05T11:50:53.031Z,30.70
2022-09-05T11:53:38.931Z,30.60
2022-09-05T11:56:45.662Z,30.40
2022-09-05T12:00:30.661Z,30.50
2022-09-05T12:02:51.968Z,30.80
2022-09-05T12:05:58.716Z,31.10
2022-09-05T12:08:36.204Z,31.30
2022-09-05T12:11:25.378Z,31.40
2022-09-05T12:14:21.364Z,31.40
2022-09-05T12:17:17.188Z,31.30
2022-09-05T12:20:17.086Z,31.10
2022-09-05T12:22:57.635Z,30.80
2022-09-05T12:27:40.624Z,31.00
2022-09-05T12:29:26.866Z,31.00
2022-09-05T12:36:13.160Z,30.80
2022-09-05T12:40:43.289Z,30.80
2022-09-05T12:41:44.086Z,30.80
2022-09-05T12:42:08.587Z,30.90
2022-09-05T12:44:45.633Z,30.80
2022-09-05T12:47:18.791Z,30.80
2022-09-05T12:50:14.899Z,30.80
2022-09-05T12:52:50.653Z,30.90
2022-09-05T12:55:19.535Z,31.00
2022-09-05T13:02:55.185Z,31.20
2022-09-05T13:03:06.201Z,31.40
2022-09-05T13:04:05.954Z,31.50
2022-09-05T13:06:39.091Z,31.70
2022-09-05T13:09:22.603Z,31.80
2022-09-05T13:14:58.511Z,31.90
2022-09-05T13:15:22.748Z,31.80
2022-09-05T13:18:04.486Z,31.70
2022-09-05T13:20:36.589Z,31.70
2022-09-05T13:23:22.727Z,31.80
2022-09-05T13:26:17.503Z,31.80
2022-09-05T13:29:10.728Z,31.90
2022-09-05T13:37:59.684Z,31.70
2022-09-05T13:38:10.673Z,31.40
2022-09-05T13:38:29.225Z,31.40
2022-09-05T13:40:49.447Z,31.60
2022-09-05T13:43:26.459Z,31.70
2022-09-05T13:46:03.474Z,31.60
2022-09-05T13:51:47.872Z,31.60
2022-09-05T13:54:39.653Z,31.60
2022-09-05T13:57:32.239Z,31.50
2022-09-05T14:00:27.069Z,31.70
2022-09-05T14:06:47.311Z,31.50
2022-09-05T14:09:36.709Z,31.30
2022-09-05T14:12:32.016Z,31.10
2022-09-05T14:15:24.807Z,31.00
2022-09-05T14:18:29.984Z,31.00
2022-09-05T14:21:18.213Z,30.90
2022-09-05T14:24:27.883Z,30.80
2022-09-05T14:26:59.132Z,30.70
2022-09-05T14:29:47.419Z,30.60
2022-09-05T14:37:32.731Z,30.60
2022-09-05T14:37:50.670Z,30.70
2022-09-05T14:38:15.343Z,30.70
2022-09-05T14:41:02.787Z,30.80
2022-09-05T14:43:48.699Z,30.80
2022-09-05T14:47:35.644Z,30.60
2022-09-05T14:50:17.626Z,30.40
2022-09-05T14:57:13.620Z,30.60
2022-09-05T15:02:44.409Z,30.90
2022-09-05T15:02:50.083Z,30.70
2022-09-05T15:04:40.888Z,30.90
2022-09-05T15:07:09.614Z,30.80
2022-09-05T15:12:14.425Z,30.70
2022-09-05T15:12:39.670Z,30.70
2022-09-05T15:15:30.800Z,30.60
2022-09-05T15:18:13.565Z,30.40
2022-09-05T15:20:44.723Z,30.30
2022-09-05T15:23:32.802Z,30.20
2022-09-05T15:26:05.722Z,30.20
2022-09-05T15:28:37.464Z,30.10
2022-09-05T15:31:10.405Z,30.00
2022-09-05T15:33:40.801Z,29.90
2022-09-05T15:36:13.795Z,29.90
2022-09-05T15:38:54.416Z,29.80
2022-09-05T15:41:28.991Z,29.90
2022-09-05T15:44:02.524Z,29.90
2022-09-05T15:46:39.063Z,29.90
2022-09-05T15:49:12.533Z,29.80
2022-09-05T15:51:53.846Z,29.60
2022-09-05T15:54:38.435Z,29.40
2022-09-05T15:57:14.482Z,29.40
2022-09-05T15:59:51.127Z,29.30
2022-09-05T16:02:28.204Z,29.20
2022-09-05T16:10:31.607Z,29.10
2022-09-05T16:10:49.692Z,29.00
2022-09-05T16:14:29.561Z,29.00
2022-09-05T16:23:11.807Z,28.90
2022-09-05T16:23:25.660Z,28.80
2022-09-05T16:23:34.073Z,28.90
2022-09-05T16:26:01.088Z,28.80
2022-09-05T16:28:34.088Z,28.80
2022-09-05T16:31:05.623Z,28.80
2022-09-05T16:33:33.971Z,28.70
2022-09-05T16:36:29.815Z,28.60
2022-09-05T16:39:01.658Z,28.40
2022-09-05T16:41:50.867Z,28.20
2022-09-05T16:44:21.303Z,28.20
2022-09-05T16:47:11.967Z,28.10
2022-09-05T16:49:54.513Z,27.90
2022-09-05T16:52:36.064Z,27.90
2022-09-05T16:55:28.994Z,27.80
2022-09-05T16:58:03.409Z,27.70
2022-09-05T17:01:12.358Z,27.50
2022-09-05T17:04:03.525Z,27.40
2022-09-05T17:06:48.080Z,27.30
2022-09-05T17:09:25.162Z,27.20
2022-09-05T17:12:02.193Z,27.00
2022-09-05T17:14:51.535Z,26.90
2022-09-05T17:18:19.599Z,26.80
2022-09-05T17:20:35.683Z,26.70
2022-09-05T17:29:21.169Z,26.60
2022-09-05T17:29:25.039Z,26.50
2022-09-05T17:29:32.523Z,26.50
2022-09-05T17:31:55.103Z,26.40
2022-09-05T17:34:48.154Z,26.40
2022-09-05T17:37:39.205Z,26.30
2022-09-05T17:40:32.847Z,26.30
2022-09-05T17:43:08.481Z,26.20
2022-09-05T17:45:59.667Z,26.20
2022-09-05T17:48:46.227Z,26.20
2022-09-05T17:51:18.173Z,26.10
2022-09-05T17:54:02.917Z,26.10
2022-09-05T17:56:36.612Z,26.00
2022-09-05T17:59:13.324Z,26.00
2022-09-05T18:01:46.203Z,25.90
2022-09-05T18:04:39.603Z,25.90
2022-09-05T18:07:26.850Z,25.80
2022-09-05T18:10:12.821Z,25.80
2022-09-05T18:15:39.344Z,25.70
2022-09-05T18:18:20.554Z,25.70
2022-09-05T18:21:21.304Z,25.70
2022-09-05T18:24:04.123Z,25.70
2022-09-05T18:26:44.602Z,25.70
2022-09-05T18:29:58.749Z,25.70
2022-09-05T18:33:56.384Z,25.60
2022-09-05T18:35:53.788Z,25.60
2022-09-05T18:38:27.541Z,25.60
2022-09-05T18:41:38.770Z,25.50
2022-09-05T18:44:13.965Z,25.40
2022-09-05T18:46:51.960Z,25.40
2022-09-05T18:50:22.705Z,25.30
2022-09-05T18:52:28.149Z,25.30
2022-09-05T18:56:00.774Z,25.30
2022-09-05T18:58:09.480Z,25.30
2022-09-05T19:00:44.138Z,25.20
2022-09-05T19:03:25.248Z,25.20
2022-09-05T19:06:36.123Z,25.10
2022-09-05T19:08:54.742Z,25.10
2022-09-05T19:11:31.693Z,25.00
2022-09-05T19:14:25.524Z,25.00
2022-09-05T19:17:03.476Z,24.90
2022-09-05T19:20:06.978Z,24.90
2022-09-05T19:23:10.493Z,24.90
2022-09-05T19:25:44.873Z,24.90
2022-09-05T19:36:59.790Z,24.90
2022-09-05T19:37:02.707Z,24.90
2022-09-05T19:37:04.341Z,24.80
2022-09-05T19:37:29.140Z,24.80
2022-09-05T19:42:48.044Z,24.80
2022-09-05T19:47:35.374Z,24.80
2022-09-05T19:47:43.633Z,24.80
2022-09-05T19:48:34.439Z,24.80
2022-09-05T19:51:16.751Z,24.80
2022-09-05T19:54:04.027Z,24.80
2022-09-05T19:56:46.407Z,24.70
2022-09-05T19:59:22.461Z,24.70
2022-09-05T20:01:51.777Z,24.60
2022-09-05T20:04:20.969Z,24.60
2022-09-05T20:06:49.997Z,24.60
2022-09-05T20:09:22.974Z,24.70
2022-09-05T20:11:59.948Z,24.70
2022-09-05T20:14:32.828Z,24.70
2022-09-05T20:17:28.707Z,24.70
2022-09-05T20:20:14.815Z,24.70
2022-09-05T20:22:50.563Z,24.70
2022-09-05T20:25:39.775Z,24.70
2022-09-05T20:28:19.483Z,24.70
2022-09-05T20:30:51.695Z,24.60
2022-09-05T20:33:31.231Z,24.60
2022-09-05T20:41:01.270Z,24.60
2022-09-05T20:43:19.943Z,24.50
2022-09-05T20:43:32.629Z,24.50
2022-09-05T20:44:50.404Z,24.40
2022-09-05T20:53:11.089Z,24.40
2022-09-05T20:54:15.846Z,24.30
2022-09-05T20:54:16.039Z,24.40
2022-09-05T20:56:23.594Z,24.30
2022-09-05T20:58:51.987Z,24.40
2022-09-05T21:01:23.682Z,24.40
2022-09-05T21:04:02.443Z,24.40
2022-09-05T21:06:33.375Z,24.30
2022-09-05T21:09:33.835Z,24.30
2022-09-05T21:12:09.126Z,24.40
2022-09-05T21:14:43.683Z,24.30
2022-09-05T21:17:15.346Z,24.40
2022-09-05T21:19:53.804Z,24.30
2022-09-05T21:22:23.691Z,24.30
2022-09-05T21:25:15.796Z,24.30
2022-09-05T21:28:05.391Z,24.30
2022-09-05T21:30:44.335Z,24.20
2022-09-05T21:33:18.737Z,24.10
2022-09-05T21:35:50.031Z,24.20
2022-09-05T21:38:32.230Z,24.10
2022-09-05T21:41:01.701Z,24.10
2022-09-05T21:47:37.836Z,24.10
2022-09-05T21:47:40.639Z,24.10
2022-09-05T21:49:07.646Z,24.00
2022-09-05T21:51:36.520Z,24.00
2022-09-05T21:59:14.989Z,23.90
2022-09-05T21:59:26.556Z,23.90
2022-09-05T21:59:50.279Z,23.90
2022-09-05T22:02:18.247Z,23.80
2022-09-05T22:04:47.272Z,23.80
2022-09-05T22:07:31.834Z,23.70
2022-09-05T22:10:04.357Z,23.60
2022-09-05T22:12:39.089Z,23.50
2022-09-05T22:15:27.305Z,23.40
2022-09-05T22:18:07.693Z,23.30
2022-09-05T22:20:51.299Z,23.20
2022-09-05T22:23:38.366Z,23.10
2022-09-05T22:26:06.314Z,23.00
2022-09-05T22:28:38.302Z,23.00
2022-09-05T22:31:07.566Z,22.90
2022-09-05T22:33:36.426Z,22.90
2022-09-05T22:36:04.626Z,22.80
2022-09-05T22:38:33.221Z,22.80
2022-09-05T22:41:00.579Z,22.80
2022-09-05T22:43:27.871Z,22.80
2022-09-05T22:45:56.478Z,22.90
2022-09-05T22:48:24.158Z,22.90
2022-09-05T22:50:52.108Z,22.90
2022-09-05T22:53:19.485Z,22.90
2022-09-05T22:55:47.062Z,22.90
2022-09-05T22:58:15.762Z,22.80
2022-09-05T23:00:44.740Z,22.70
2022-09-05T23:03:12.398Z,22.70
2022-09-05T23:05:39.720Z,22.60
2022-09-05T23:08:07.594Z,22.50
2022-09-05T23:10:36.220Z,22.50
2022-09-05T23:13:08.839Z,22.40
2022-09-05T23:15:37.320Z,22.40
2022-09-05T23:18:05.701Z,22.30
2022-09-05T23:20:34.467Z,22.30
2022-09-05T23:23:06.631Z,22.10
2022-09-05T23:25:35.141Z,22.10
2022-09-05T23:28:07.694Z,22.00
2022-09-05T23:30:36.619Z,21.90
2022-09-05T23:33:07.166Z,21.90
2022-09-05T23:35:35.009Z,21.80
2022-09-05T23:38:03.010Z,21.80
2022-09-05T23:40:30.314Z,21.70
2022-09-05T23:43:01.193Z,21.70
2022-09-05T23:45:29.109Z,21.70
2022-09-05T23:47:59.685Z,21.60
2022-09-05T23:50:28.250Z,21.60
2022-09-05T23:52:55.703Z,21.60
2022-09-05T23:55:23.573Z,21.60
2022-09-05T23:57:59.421Z,21.50
